logo
Search for airport 
image banner adimage banner adimage banner ad
image banner ad

ESNV - Vilhelmina

Located in Vilhelmina, Sweden

ICAO - ESNV, IATA - VHM

Data provided by Airmate  

General information

Coordinates: N64°34'43" E16°50'23"
Elevation is 1141 feet MSL.
Magnetic variation is +7.0° East
View others Airports in Västerbottens län

Operational data

Special qualification required
Current time UTC:
Current local time:
Weather
METAR: ESNV 130620Z AUTO 22004KT 190V270 9999 FEW046/// OVC066/// 05/02 Q1002
View NOTAMs / SUP AIP / TFR affecting this airport [VIEW]
Communications frequencies: [VIEW]

Runways:

RWY identifierQFULength (ft)Width (ft)SurfaceLDA (ft)
10103°492198ASPH4921
28283°492198ASPH4134

Airport contact information

Address: Vilhelmina Sweden

Satellite view of ESNV